Ampere, New Jersey
Current Conditions -  °F | °C
As of 11:51 PM on Saturday 25 Oct 2014 (Local Time) from KEWR Reporting Station
Broken Clouds Broken Clouds  
Wind Chill: 16°   Ceiling: 10000
Heat Index: 16°   Visibility: 10mi
Dew Point:   Wind: 10mph
Humidity: 57%   Direction: 230°SW
Pressure: 29.57"   Gusts: NA
Location:  40.7716°N, 74.2073°W
Report Text: KEWR 260351Z 23009KT 10SM FEW065 BKN100 16/07 A2957 RMK AO2 PK WND 26031/0307 SLP013 T01560072
Loading
Personal Weather Stations






























Interactive Weather Map New forecast layout! Learn more

10-Day Weather Forecast

Advertisements
Track Severe Weather on mobile